sensor_id;sensor_type;location;lat;lon;timestamp;P1;durP1;ratioP1;P2;durP2;ratioP2
66478;SDS011;53294;47.912;13.526;2023-01-29T00:00:20;15.75;;;10.38;;
66478;SDS011;53294;47.912;13.526;2023-01-29T00:02:47;14.50;;;9.43;;
66478;SDS011;53294;47.912;13.526;2023-01-29T00:05:14;16.00;;;9.65;;
66478;SDS011;53294;47.912;13.526;2023-01-29T00:07:53;17.17;;;10.68;;
66478;SDS011;53294;47.912;13.526;2023-01-29T00:10:22;15.45;;;10.10;;
66478;SDS011;53294;47.912;13.526;2023-01-29T00:12:49;16.65;;;10.27;;
66478;SDS011;53294;47.912;13.526;2023-01-29T00:15:17;18.95;;;10.63;;
66478;SDS011;53294;47.912;13.526;2023-01-29T00:17:44;16.73;;;9.32;;
66478;SDS011;53294;47.912;13.526;2023-01-29T00:20:10;17.48;;;9.77;;
66478;SDS011;53294;47.912;13.526;2023-01-29T00:22:37;15.25;;;9.38;;
66478;SDS011;53294;47.912;13.526;2023-01-29T00:25:04;16.23;;;8.90;;
66478;SDS011;53294;47.912;13.526;2023-01-29T00:27:31;15.55;;;10.65;;
66478;SDS011;53294;47.912;13.526;2023-01-29T00:29:58;17.02;;;9.63;;
66478;SDS011;53294;47.912;13.526;2023-01-29T00:32:38;18.10;;;9.63;;
66478;SDS011;53294;47.912;13.526;2023-01-29T00:35:06;17.08;;;9.52;;
66478;SDS011;53294;47.912;13.526;2023-01-29T00:37:33;15.65;;;8.93;;
66478;SDS011;53294;47.912;13.526;2023-01-29T00:40:00;13.90;;;8.50;;
66478;SDS011;53294;47.912;13.526;2023-01-29T00:42:27;15.90;;;9.82;;
66478;SDS011;53294;47.912;13.526;2023-01-29T00:45:12;17.75;;;10.35;;
66478;SDS011;53294;47.912;13.526;2023-01-29T00:47:40;15.20;;;9.30;;
66478;SDS011;53294;47.912;13.526;2023-01-29T00:50:08;13.98;;;8.98;;
66478;SDS011;53294;47.912;13.526;2023-01-29T00:52:36;17.50;;;8.98;;
66478;SDS011;53294;47.912;13.526;2023-01-29T00:55:03;15.60;;;8.93;;
66478;SDS011;53294;47.912;13.526;2023-01-29T00:57:31;17.05;;;9.13;;
66478;SDS011;53294;47.912;13.526;2023-01-29T00:59:59;15.23;;;8.25;;
66478;SDS011;53294;47.912;13.526;2023-01-29T01:02:26;14.00;;;8.25;;
66478;SDS011;53294;47.912;13.526;2023-01-29T01:05:12;15.77;;;9.57;;
66478;SDS011;53294;47.912;13.526;2023-01-29T01:07:46;16.25;;;9.75;;
66478;SDS011;53294;47.912;13.526;2023-01-29T01:10:19;16.08;;;9.73;;
66478;SDS011;53294;47.912;13.526;2023-01-29T01:15:22;21.85;;;11.48;;
66478;SDS011;53294;47.912;13.526;2023-01-29T01:17:51;20.00;;;11.32;;
66478;SDS011;53294;47.912;13.526;2023-01-29T01:20:19;17.35;;;10.35;;
66478;SDS011;53294;47.912;13.526;2023-01-29T01:22:46;17.23;;;10.60;;
66478;SDS011;53294;47.912;13.526;2023-01-29T01:25:13;21.45;;;11.80;;
66478;SDS011;53294;47.912;13.526;2023-01-29T01:27:39;15.63;;;10.18;;
66478;SDS011;53294;47.912;13.526;2023-01-29T01:30:10;15.93;;;10.23;;
66478;SDS011;53294;47.912;13.526;2023-01-29T01:32:40;19.83;;;11.48;;
66478;SDS011;53294;47.912;13.526;2023-01-29T01:35:08;18.45;;;11.02;;
66478;SDS011;53294;47.912;13.526;2023-01-29T01:37:36;21.58;;;11.70;;
66478;SDS011;53294;47.912;13.526;2023-01-29T01:40:04;19.15;;;10.70;;
66478;SDS011;53294;47.912;13.526;2023-01-29T01:42:38;19.27;;;11.43;;
66478;SDS011;53294;47.912;13.526;2023-01-29T01:45:06;16.48;;;10.10;;
66478;SDS011;53294;47.912;13.526;2023-01-29T01:47:44;20.45;;;11.82;;
66478;SDS011;53294;47.912;13.526;2023-01-29T01:50:59;18.50;;;10.52;;
66478;SDS011;53294;47.912;13.526;2023-01-29T01:53:06;19.77;;;10.77;;
66478;SDS011;53294;47.912;13.526;2023-01-29T01:55:37;18.83;;;10.70;;
66478;SDS011;53294;47.912;13.526;2023-01-29T01:58:16;19.80;;;11.52;;
66478;SDS011;53294;47.912;13.526;2023-01-29T02:03:13;16.65;;;9.60;;
66478;SDS011;53294;47.912;13.526;2023-01-29T02:05:58;17.08;;;9.13;;
66478;SDS011;53294;47.912;13.526;2023-01-29T02:08:58;17.88;;;10.13;;
66478;SDS011;53294;47.912;13.526;2023-01-29T02:11:49;18.45;;;10.55;;
66478;SDS011;53294;47.912;13.526;2023-01-29T02:14:16;17.98;;;10.77;;
66478;SDS011;53294;47.912;13.526;2023-01-29T02:16:43;20.00;;;11.32;;
66478;SDS011;53294;47.912;13.526;2023-01-29T02:19:16;21.02;;;11.40;;
66478;SDS011;53294;47.912;13.526;2023-01-29T02:22:01;21.38;;;10.35;;
66478;SDS011;53294;47.912;13.526;2023-01-29T02:27:27;18.70;;;10.98;;
66478;SDS011;53294;47.912;13.526;2023-01-29T02:30:32;18.35;;;10.90;;
66478;SDS011;53294;47.912;13.526;2023-01-29T02:35:55;22.92;;;10.90;;
66478;SDS011;53294;47.912;13.526;2023-01-29T02:46:51;23.38;;;12.18;;
66478;SDS011;53294;47.912;13.526;2023-01-29T02:52:25;16.60;;;9.52;;
66478;SDS011;53294;47.912;13.526;2023-01-29T02:57:36;22.20;;;11.73;;
66478;SDS011;53294;47.912;13.526;2023-01-29T03:00:11;18.63;;;10.30;;
66478;SDS011;53294;47.912;13.526;2023-01-29T03:02:42;20.80;;;12.15;;
66478;SDS011;53294;47.912;13.526;2023-01-29T03:05:16;30.83;;;16.27;;
66478;SDS011;53294;47.912;13.526;2023-01-29T03:07:50;26.17;;;14.55;;
66478;SDS011;53294;47.912;13.526;2023-01-29T03:10:29;25.10;;;13.32;;
66478;SDS011;53294;47.912;13.526;2023-01-29T03:13:20;27.35;;;14.90;;
66478;SDS011;53294;47.912;13.526;2023-01-29T03:16:00;23.98;;;13.57;;
66478;SDS011;53294;47.912;13.526;2023-01-29T03:18:37;22.42;;;12.73;;
66478;SDS011;53294;47.912;13.526;2023-01-29T03:21:22;22.90;;;12.80;;
66478;SDS011;53294;47.912;13.526;2023-01-29T03:24:12;23.13;;;12.57;;
66478;SDS011;53294;47.912;13.526;2023-01-29T03:27:02;23.35;;;12.82;;
66478;SDS011;53294;47.912;13.526;2023-01-29T03:29:50;21.52;;;12.45;;
66478;SDS011;53294;47.912;13.526;2023-01-29T03:32:38;23.95;;;13.00;;
66478;SDS011;53294;47.912;13.526;2023-01-29T03:35:06;23.50;;;13.02;;
66478;SDS011;53294;47.912;13.526;2023-01-29T03:37:40;27.20;;;14.48;;
66478;SDS011;53294;47.912;13.526;2023-01-29T03:40:11;23.05;;;13.07;;
66478;SDS011;53294;47.912;13.526;2023-01-29T03:42:55;24.95;;;12.88;;
66478;SDS011;53294;47.912;13.526;2023-01-29T03:51:29;34.42;;;19.67;;
66478;SDS011;53294;47.912;13.526;2023-01-29T03:56:33;22.50;;;13.05;;
66478;SDS011;53294;47.912;13.526;2023-01-29T03:59:14;27.42;;;14.70;;
66478;SDS011;53294;47.912;13.526;2023-01-29T04:02:08;30.15;;;16.10;;
66478;SDS011;53294;47.912;13.526;2023-01-29T04:04:58;23.75;;;13.73;;
66478;SDS011;53294;47.912;13.526;2023-01-29T04:07:29;23.83;;;15.10;;
66478;SDS011;53294;47.912;13.526;2023-01-29T04:10:07;28.30;;;15.45;;
66478;SDS011;53294;47.912;13.526;2023-01-29T04:12:40;26.65;;;15.73;;
66478;SDS011;53294;47.912;13.526;2023-01-29T04:15:11;30.40;;;26.02;;
66478;SDS011;53294;47.912;13.526;2023-01-29T04:17:42;25.05;;;15.43;;
66478;SDS011;53294;47.912;13.526;2023-01-29T04:20:12;24.55;;;15.05;;
66478;SDS011;53294;47.912;13.526;2023-01-29T04:22:41;28.75;;;17.23;;
66478;SDS011;53294;47.912;13.526;2023-01-29T04:25:12;35.35;;;22.95;;
66478;SDS011;53294;47.912;13.526;2023-01-29T04:36:13;30.23;;;18.95;;
66478;SDS011;53294;47.912;13.526;2023-01-29T04:50:12;27.75;;;15.70;;
66478;SDS011;53294;47.912;13.526;2023-01-29T05:01:10;38.95;;;32.33;;
66478;SDS011;53294;47.912;13.526;2023-01-29T05:03:42;37.28;;;24.98;;
66478;SDS011;53294;47.912;13.526;2023-01-29T05:06:12;32.35;;;23.95;;
66478;SDS011;53294;47.912;13.526;2023-01-29T05:08:40;28.15;;;15.43;;
66478;SDS011;53294;47.912;13.526;2023-01-29T05:11:07;32.75;;;20.73;;
66478;SDS011;53294;47.912;13.526;2023-01-29T05:13:35;27.63;;;14.85;;
66478;SDS011;53294;47.912;13.526;2023-01-29T05:16:12;24.55;;;14.38;;
66478;SDS011;53294;47.912;13.526;2023-01-29T05:18:43;25.42;;;13.75;;
66478;SDS011;53294;47.912;13.526;2023-01-29T05:21:10;24.77;;;13.57;;
66478;SDS011;53294;47.912;13.526;2023-01-29T05:23:36;26.92;;;16.20;;
66478;SDS011;53294;47.912;13.526;2023-01-29T05:26:03;26.63;;;14.07;;
66478;SDS011;53294;47.912;13.526;2023-01-29T05:28:30;27.30;;;14.95;;
66478;SDS011;53294;47.912;13.526;2023-01-29T05:30:57;28.85;;;14.85;;
66478;SDS011;53294;47.912;13.526;2023-01-29T05:33:28;25.45;;;14.45;;
66478;SDS011;53294;47.912;13.526;2023-01-29T05:35:59;24.38;;;14.13;;
66478;SDS011;53294;47.912;13.526;2023-01-29T05:38:26;23.17;;;13.38;;
66478;SDS011;53294;47.912;13.526;2023-01-29T05:40:52;25.13;;;14.07;;
66478;SDS011;53294;47.912;13.526;2023-01-29T05:43:20;27.45;;;15.38;;
66478;SDS011;53294;47.912;13.526;2023-01-29T05:45:52;27.13;;;14.98;;
66478;SDS011;53294;47.912;13.526;2023-01-29T05:48:20;27.23;;;14.80;;
66478;SDS011;53294;47.912;13.526;2023-01-29T05:50:47;27.17;;;14.43;;
66478;SDS011;53294;47.912;13.526;2023-01-29T05:53:14;26.75;;;15.00;;
66478;SDS011;53294;47.912;13.526;2023-01-29T05:55:44;26.92;;;14.25;;
66478;SDS011;53294;47.912;13.526;2023-01-29T05:58:12;27.23;;;15.43;;
66478;SDS011;53294;47.912;13.526;2023-01-29T06:00:39;24.65;;;14.52;;
66478;SDS011;53294;47.912;13.526;2023-01-29T06:03:06;26.05;;;14.50;;
66478;SDS011;53294;47.912;13.526;2023-01-29T06:05:36;27.35;;;14.45;;
66478;SDS011;53294;47.912;13.526;2023-01-29T06:08:03;24.52;;;12.77;;
66478;SDS011;53294;47.912;13.526;2023-01-29T06:10:30;21.55;;;11.70;;
66478;SDS011;53294;47.912;13.526;2023-01-29T06:12:57;20.95;;;11.75;;
66478;SDS011;53294;47.912;13.526;2023-01-29T06:15:24;23.40;;;13.55;;
66478;SDS011;53294;47.912;13.526;2023-01-29T06:17:55;22.13;;;12.48;;
66478;SDS011;53294;47.912;13.526;2023-01-29T06:20:22;21.77;;;12.05;;
66478;SDS011;53294;47.912;13.526;2023-01-29T06:22:49;22.50;;;12.45;;
66478;SDS011;53294;47.912;13.526;2023-01-29T06:25:16;18.10;;;10.65;;
66478;SDS011;53294;47.912;13.526;2023-01-29T06:27:43;16.85;;;8.95;;
66478;SDS011;53294;47.912;13.526;2023-01-29T06:30:09;17.02;;;8.85;;
66478;SDS011;53294;47.912;13.526;2023-01-29T06:32:36;14.02;;;8.15;;
66478;SDS011;53294;47.912;13.526;2023-01-29T06:35:03;13.43;;;7.22;;
66478;SDS011;53294;47.912;13.526;2023-01-29T06:37:30;13.75;;;7.95;;
66478;SDS011;53294;47.912;13.526;2023-01-29T06:39:57;13.55;;;7.63;;
66478;SDS011;53294;47.912;13.526;2023-01-29T06:42:23;15.57;;;8.15;;
66478;SDS011;53294;47.912;13.526;2023-01-29T06:44:56;15.77;;;7.68;;
66478;SDS011;53294;47.912;13.526;2023-01-29T06:47:23;16.27;;;8.65;;
66478;SDS011;53294;47.912;13.526;2023-01-29T06:49:50;15.48;;;9.63;;
66478;SDS011;53294;47.912;13.526;2023-01-29T06:52:17;15.90;;;9.18;;
66478;SDS011;53294;47.912;13.526;2023-01-29T06:54:44;15.15;;;8.73;;
66478;SDS011;53294;47.912;13.526;2023-01-29T06:57:11;15.32;;;8.63;;
66478;SDS011;53294;47.912;13.526;2023-01-29T06:59:37;15.38;;;8.43;;
66478;SDS011;53294;47.912;13.526;2023-01-29T07:02:04;14.02;;;8.32;;
66478;SDS011;53294;47.912;13.526;2023-01-29T07:04:31;17.05;;;9.63;;
66478;SDS011;53294;47.912;13.526;2023-01-29T07:06:58;20.45;;;11.05;;
66478;SDS011;53294;47.912;13.526;2023-01-29T07:09:25;19.50;;;11.18;;
66478;SDS011;53294;47.912;13.526;2023-01-29T07:11:51;21.00;;;11.52;;
66478;SDS011;53294;47.912;13.526;2023-01-29T07:14:18;21.35;;;11.77;;
66478;SDS011;53294;47.912;13.526;2023-01-29T07:16:45;31.73;;;16.63;;
66478;SDS011;53294;47.912;13.526;2023-01-29T07:19:11;55.17;;;27.00;;
66478;SDS011;53294;47.912;13.526;2023-01-29T07:21:38;29.55;;;14.57;;
66478;SDS011;53294;47.912;13.526;2023-01-29T07:24:05;101.65;;;38.42;;
66478;SDS011;53294;47.912;13.526;2023-01-29T07:26:32;41.55;;;20.48;;
66478;SDS011;53294;47.912;13.526;2023-01-29T07:28:58;28.65;;;14.82;;
66478;SDS011;53294;47.912;13.526;2023-01-29T07:31:25;22.48;;;12.05;;
66478;SDS011;53294;47.912;13.526;2023-01-29T07:33:52;20.50;;;12.30;;
66478;SDS011;53294;47.912;13.526;2023-01-29T07:36:18;61.72;;;25.83;;
66478;SDS011;53294;47.912;13.526;2023-01-29T07:38:49;27.55;;;12.82;;
66478;SDS011;53294;47.912;13.526;2023-01-29T07:41:16;15.65;;;8.63;;
66478;SDS011;53294;47.912;13.526;2023-01-29T07:43:43;16.17;;;8.73;;
66478;SDS011;53294;47.912;13.526;2023-01-29T07:46:09;26.25;;;14.18;;
66478;SDS011;53294;47.912;13.526;2023-01-29T07:48:36;27.35;;;11.65;;
66478;SDS011;53294;47.912;13.526;2023-01-29T07:51:03;18.10;;;9.43;;
66478;SDS011;53294;47.912;13.526;2023-01-29T07:53:30;13.65;;;7.95;;
66478;SDS011;53294;47.912;13.526;2023-01-29T07:55:56;20.90;;;10.18;;
66478;SDS011;53294;47.912;13.526;2023-01-29T07:58:23;35.85;;;15.05;;
66478;SDS011;53294;47.912;13.526;2023-01-29T08:00:50;40.08;;;16.85;;
66478;SDS011;53294;47.912;13.526;2023-01-29T08:03:17;41.65;;;17.50;;
66478;SDS011;53294;47.912;13.526;2023-01-29T08:05:45;15.60;;;8.57;;
66478;SDS011;53294;47.912;13.526;2023-01-29T08:08:12;13.30;;;7.63;;
66478;SDS011;53294;47.912;13.526;2023-01-29T08:10:39;15.60;;;8.48;;
66478;SDS011;53294;47.912;13.526;2023-01-29T08:13:07;13.65;;;7.75;;
66478;SDS011;53294;47.912;13.526;2023-01-29T08:15:34;13.35;;;7.03;;
66478;SDS011;53294;47.912;13.526;2023-01-29T08:18:04;14.77;;;7.65;;
66478;SDS011;53294;47.912;13.526;2023-01-29T08:20:31;32.75;;;13.77;;
66478;SDS011;53294;47.912;13.526;2023-01-29T08:23:01;22.20;;;9.13;;
66478;SDS011;53294;47.912;13.526;2023-01-29T08:25:29;14.40;;;7.70;;
66478;SDS011;53294;47.912;13.526;2023-01-29T08:27:56;16.38;;;8.25;;
66478;SDS011;53294;47.912;13.526;2023-01-29T08:30:25;10.73;;;5.95;;
66478;SDS011;53294;47.912;13.526;2023-01-29T08:32:53;9.88;;;5.63;;
66478;SDS011;53294;47.912;13.526;2023-01-29T08:35:20;12.85;;;6.93;;
66478;SDS011;53294;47.912;13.526;2023-01-29T08:37:51;16.40;;;8.85;;
66478;SDS011;53294;47.912;13.526;2023-01-29T08:40:22;13.90;;;7.05;;
66478;SDS011;53294;47.912;13.526;2023-01-29T08:42:48;13.48;;;6.85;;
66478;SDS011;53294;47.912;13.526;2023-01-29T08:45:15;11.57;;;6.70;;
66478;SDS011;53294;47.912;13.526;2023-01-29T08:47:48;14.48;;;8.13;;
66478;SDS011;53294;47.912;13.526;2023-01-29T08:50:15;14.40;;;8.80;;
66478;SDS011;53294;47.912;13.526;2023-01-29T08:52:43;13.70;;;8.07;;
66478;SDS011;53294;47.912;13.526;2023-01-29T08:55:11;14.88;;;9.18;;
66478;SDS011;53294;47.912;13.526;2023-01-29T08:57:38;14.07;;;8.82;;
66478;SDS011;53294;47.912;13.526;2023-01-29T09:00:05;18.73;;;9.80;;
66478;SDS011;53294;47.912;13.526;2023-01-29T09:02:34;15.95;;;9.18;;
66478;SDS011;53294;47.912;13.526;2023-01-29T09:05:01;17.23;;;9.77;;
66478;SDS011;53294;47.912;13.526;2023-01-29T09:07:28;15.60;;;9.32;;
66478;SDS011;53294;47.912;13.526;2023-01-29T09:09:55;18.08;;;10.85;;
66478;SDS011;53294;47.912;13.526;2023-01-29T09:12:21;18.27;;;11.32;;
66478;SDS011;53294;47.912;13.526;2023-01-29T09:14:48;18.38;;;10.82;;
66478;SDS011;53294;47.912;13.526;2023-01-29T09:17:15;16.15;;;8.80;;
66478;SDS011;53294;47.912;13.526;2023-01-29T09:19:41;17.77;;;9.43;;
66478;SDS011;53294;47.912;13.526;2023-01-29T09:22:08;18.75;;;10.65;;
66478;SDS011;53294;47.912;13.526;2023-01-29T09:24:37;14.23;;;8.35;;
66478;SDS011;53294;47.912;13.526;2023-01-29T09:27:03;16.45;;;10.07;;
66478;SDS011;53294;47.912;13.526;2023-01-29T09:29:31;18.13;;;10.07;;
66478;SDS011;53294;47.912;13.526;2023-01-29T09:32:01;17.95;;;10.50;;
66478;SDS011;53294;47.912;13.526;2023-01-29T09:34:29;20.15;;;10.93;;
66478;SDS011;53294;47.912;13.526;2023-01-29T09:36:56;20.23;;;11.60;;
66478;SDS011;53294;47.912;13.526;2023-01-29T09:39:23;26.55;;;14.75;;
66478;SDS011;53294;47.912;13.526;2023-01-29T09:41:52;14.80;;;8.70;;
66478;SDS011;53294;47.912;13.526;2023-01-29T09:47:19;18.33;;;10.07;;
66478;SDS011;53294;47.912;13.526;2023-01-29T09:52:31;10.13;;;5.90;;
66478;SDS011;53294;47.912;13.526;2023-01-29T09:57:57;8.90;;;5.28;;
66478;SDS011;53294;47.912;13.526;2023-01-29T10:05:59;13.70;;;7.25;;
66478;SDS011;53294;47.912;13.526;2023-01-29T10:25:28;10.20;;;6.00;;
66478;SDS011;53294;47.912;13.526;2023-01-29T10:27:58;10.95;;;6.43;;
66478;SDS011;53294;47.912;13.526;2023-01-29T10:30:32;12.05;;;7.00;;
66478;SDS011;53294;47.912;13.526;2023-01-29T10:33:04;12.20;;;7.72;;
66478;SDS011;53294;47.912;13.526;2023-01-29T10:35:41;12.57;;;7.93;;
66478;SDS011;53294;47.912;13.526;2023-01-29T10:38:17;13.02;;;6.97;;
66478;SDS011;53294;47.912;13.526;2023-01-29T10:57:48;15.70;;;8.85;;
66478;SDS011;53294;47.912;13.526;2023-01-29T11:00:34;14.63;;;7.82;;
66478;SDS011;53294;47.912;13.526;2023-01-29T11:03:18;15.15;;;8.73;;
66478;SDS011;53294;47.912;13.526;2023-01-29T11:05:59;14.15;;;8.73;;
66478;SDS011;53294;47.912;13.526;2023-01-29T11:11:33;11.85;;;7.10;;
66478;SDS011;53294;47.912;13.526;2023-01-29T11:14:09;12.65;;;7.18;;
66478;SDS011;53294;47.912;13.526;2023-01-29T11:16:42;21.48;;;9.05;;
66478;SDS011;53294;47.912;13.526;2023-01-29T11:19:11;13.80;;;8.05;;
66478;SDS011;53294;47.912;13.526;2023-01-29T11:24:25;14.93;;;8.77;;
66478;SDS011;53294;47.912;13.526;2023-01-29T11:26:56;15.70;;;9.10;;
66478;SDS011;53294;47.912;13.526;2023-01-29T11:32:31;14.85;;;8.20;;
66478;SDS011;53294;47.912;13.526;2023-01-29T11:37:45;14.20;;;8.10;;
66478;SDS011;53294;47.912;13.526;2023-01-29T11:42:44;13.45;;;7.78;;
66478;SDS011;53294;47.912;13.526;2023-01-29T11:47:52;13.13;;;7.18;;
66478;SDS011;53294;47.912;13.526;2023-01-29T11:50:31;11.93;;;7.35;;
66478;SDS011;53294;47.912;13.526;2023-01-29T11:52:59;13.65;;;6.97;;
66478;SDS011;53294;47.912;13.526;2023-01-29T11:55:33;13.27;;;7.10;;
66478;SDS011;53294;47.912;13.526;2023-01-29T11:58:16;11.02;;;6.00;;
66478;SDS011;53294;47.912;13.526;2023-01-29T12:00:54;9.98;;;5.70;;
66478;SDS011;53294;47.912;13.526;2023-01-29T12:03:31;13.00;;;7.35;;
66478;SDS011;53294;47.912;13.526;2023-01-29T12:06:06;11.97;;;6.13;;
66478;SDS011;53294;47.912;13.526;2023-01-29T12:08:57;12.07;;;6.47;;
66478;SDS011;53294;47.912;13.526;2023-01-29T12:11:33;11.63;;;6.40;;
66478;SDS011;53294;47.912;13.526;2023-01-29T12:14:02;12.38;;;6.93;;
66478;SDS011;53294;47.912;13.526;2023-01-29T12:16:37;13.60;;;7.70;;
66478;SDS011;53294;47.912;13.526;2023-01-29T12:19:39;10.93;;;6.20;;
66478;SDS011;53294;47.912;13.526;2023-01-29T12:22:21;10.13;;;6.05;;
66478;SDS011;53294;47.912;13.526;2023-01-29T12:24:58;9.75;;;5.97;;
66478;SDS011;53294;47.912;13.526;2023-01-29T12:27:50;9.77;;;6.28;;
66478;SDS011;53294;47.912;13.526;2023-01-29T12:35:55;10.95;;;6.43;;
66478;SDS011;53294;47.912;13.526;2023-01-29T12:38:46;10.48;;;6.20;;
66478;SDS011;53294;47.912;13.526;2023-01-29T12:42:00;13.20;;;6.65;;
66478;SDS011;53294;47.912;13.526;2023-01-29T12:44:04;9.80;;;5.97;;
66478;SDS011;53294;47.912;13.526;2023-01-29T12:46:39;9.65;;;6.47;;
66478;SDS011;53294;47.912;13.526;2023-01-29T12:49:17;13.20;;;7.32;;
66478;SDS011;53294;47.912;13.526;2023-01-29T12:51:52;11.57;;;6.35;;
66478;SDS011;53294;47.912;13.526;2023-01-29T12:54:32;11.05;;;6.47;;
66478;SDS011;53294;47.912;13.526;2023-01-29T12:57:05;9.93;;;6.40;;
66478;SDS011;53294;47.912;13.526;2023-01-29T12:59:40;11.95;;;6.85;;
66478;SDS011;53294;47.912;13.526;2023-01-29T13:04:55;10.20;;;6.13;;
66478;SDS011;53294;47.912;13.526;2023-01-29T13:07:34;11.98;;;6.00;;
66478;SDS011;53294;47.912;13.526;2023-01-29T13:10:12;10.95;;;6.95;;
66478;SDS011;53294;47.912;13.526;2023-01-29T13:12:47;10.85;;;5.60;;
66478;SDS011;53294;47.912;13.526;2023-01-29T13:15:21;10.05;;;5.88;;
66478;SDS011;53294;47.912;13.526;2023-01-29T13:17:58;9.55;;;5.95;;
66478;SDS011;53294;47.912;13.526;2023-01-29T13:20:38;10.35;;;6.25;;
66478;SDS011;53294;47.912;13.526;2023-01-29T13:23:20;11.50;;;6.40;;
66478;SDS011;53294;47.912;13.526;2023-01-29T13:25:51;9.45;;;5.63;;
66478;SDS011;53294;47.912;13.526;2023-01-29T13:28:20;10.35;;;6.00;;
66478;SDS011;53294;47.912;13.526;2023-01-29T13:31:08;10.15;;;6.22;;
66478;SDS011;53294;47.912;13.526;2023-01-29T13:33:36;10.38;;;6.40;;
66478;SDS011;53294;47.912;13.526;2023-01-29T13:36:05;10.07;;;5.80;;
66478;SDS011;53294;47.912;13.526;2023-01-29T13:38:41;10.30;;;6.15;;
66478;SDS011;53294;47.912;13.526;2023-01-29T13:41:10;9.40;;;5.85;;
66478;SDS011;53294;47.912;13.526;2023-01-29T13:43:38;8.90;;;5.40;;
66478;SDS011;53294;47.912;13.526;2023-01-29T13:46:09;10.98;;;6.15;;
66478;SDS011;53294;47.912;13.526;2023-01-29T13:48:41;9.07;;;6.00;;
66478;SDS011;53294;47.912;13.526;2023-01-29T13:51:14;9.85;;;6.30;;
66478;SDS011;53294;47.912;13.526;2023-01-29T13:53:56;11.18;;;6.65;;
66478;SDS011;53294;47.912;13.526;2023-01-29T13:56:40;10.48;;;6.72;;
66478;SDS011;53294;47.912;13.526;2023-01-29T14:02:27;10.32;;;6.78;;
66478;SDS011;53294;47.912;13.526;2023-01-29T14:10:25;11.95;;;7.45;;
66478;SDS011;53294;47.912;13.526;2023-01-29T14:15:34;12.32;;;7.55;;
66478;SDS011;53294;47.912;13.526;2023-01-29T14:20:47;11.82;;;7.70;;
66478;SDS011;53294;47.912;13.526;2023-01-29T14:26:23;15.35;;;9.18;;
66478;SDS011;53294;47.912;13.526;2023-01-29T14:29:13;12.10;;;7.68;;
66478;SDS011;53294;47.912;13.526;2023-01-29T14:32:20;13.70;;;8.23;;
66478;SDS011;53294;47.912;13.526;2023-01-29T14:34:51;14.15;;;8.60;;
66478;SDS011;53294;47.912;13.526;2023-01-29T14:37:34;13.13;;;8.98;;
66478;SDS011;53294;47.912;13.526;2023-01-29T14:45:32;14.60;;;9.18;;
66478;SDS011;53294;47.912;13.526;2023-01-29T14:50:41;15.77;;;9.70;;
66478;SDS011;53294;47.912;13.526;2023-01-29T14:58:32;15.18;;;9.88;;
66478;SDS011;53294;47.912;13.526;2023-01-29T15:01:13;17.92;;;10.80;;
66478;SDS011;53294;47.912;13.526;2023-01-29T15:03:52;16.83;;;10.40;;
66478;SDS011;53294;47.912;13.526;2023-01-29T15:06:31;16.33;;;10.68;;
66478;SDS011;53294;47.912;13.526;2023-01-29T15:09:16;20.55;;;11.85;;
66478;SDS011;53294;47.912;13.526;2023-01-29T15:12:04;18.92;;;11.35;;
66478;SDS011;53294;47.912;13.526;2023-01-29T15:15:24;18.00;;;10.95;;
66478;SDS011;53294;47.912;13.526;2023-01-29T15:18:04;21.30;;;11.35;;
66478;SDS011;53294;47.912;13.526;2023-01-29T15:20:35;18.67;;;11.95;;
66478;SDS011;53294;47.912;13.526;2023-01-29T15:23:16;18.73;;;10.75;;
66478;SDS011;53294;47.912;13.526;2023-01-29T15:25:58;19.77;;;12.40;;
66478;SDS011;53294;47.912;13.526;2023-01-29T15:28:30;20.27;;;12.15;;
66478;SDS011;53294;47.912;13.526;2023-01-29T15:31:02;19.77;;;11.90;;
66478;SDS011;53294;47.912;13.526;2023-01-29T15:33:31;20.65;;;12.93;;
66478;SDS011;53294;47.912;13.526;2023-01-29T15:36:03;20.35;;;12.27;;
66478;SDS011;53294;47.912;13.526;2023-01-29T15:38:33;19.27;;;11.55;;
66478;SDS011;53294;47.912;13.526;2023-01-29T15:41:01;22.20;;;13.07;;
66478;SDS011;53294;47.912;13.526;2023-01-29T15:43:42;20.33;;;11.85;;
66478;SDS011;53294;47.912;13.526;2023-01-29T15:46:11;18.52;;;12.02;;
66478;SDS011;53294;47.912;13.526;2023-01-29T15:48:41;21.67;;;12.73;;
66478;SDS011;53294;47.912;13.526;2023-01-29T15:51:13;20.85;;;12.07;;
66478;SDS011;53294;47.912;13.526;2023-01-29T15:53:53;22.83;;;12.55;;
66478;SDS011;53294;47.912;13.526;2023-01-29T15:57:10;22.38;;;13.32;;
66478;SDS011;53294;47.912;13.526;2023-01-29T15:59:23;23.30;;;12.80;;
66478;SDS011;53294;47.912;13.526;2023-01-29T16:01:52;24.55;;;13.95;;
66478;SDS011;53294;47.912;13.526;2023-01-29T16:04:21;23.27;;;13.40;;
66478;SDS011;53294;47.912;13.526;2023-01-29T16:06:52;23.40;;;13.27;;
66478;SDS011;53294;47.912;13.526;2023-01-29T16:09:21;26.00;;;14.38;;
66478;SDS011;53294;47.912;13.526;2023-01-29T16:11:50;21.38;;;12.80;;
66478;SDS011;53294;47.912;13.526;2023-01-29T16:14:21;23.13;;;13.57;;
66478;SDS011;53294;47.912;13.526;2023-01-29T16:16:50;22.58;;;13.05;;
66478;SDS011;53294;47.912;13.526;2023-01-29T16:19:25;21.92;;;12.90;;
66478;SDS011;53294;47.912;13.526;2023-01-29T16:21:57;23.13;;;13.63;;
66478;SDS011;53294;47.912;13.526;2023-01-29T16:24:26;24.65;;;13.75;;
66478;SDS011;53294;47.912;13.526;2023-01-29T16:27:16;23.30;;;13.95;;
66478;SDS011;53294;47.912;13.526;2023-01-29T16:29:41;20.77;;;12.90;;
66478;SDS011;53294;47.912;13.526;2023-01-29T16:32:08;21.83;;;12.93;;
66478;SDS011;53294;47.912;13.526;2023-01-29T16:34:40;22.30;;;13.07;;
66478;SDS011;53294;47.912;13.526;2023-01-29T16:37:22;24.13;;;12.57;;
66478;SDS011;53294;47.912;13.526;2023-01-29T16:39:54;24.15;;;12.73;;
66478;SDS011;53294;47.912;13.526;2023-01-29T16:42:25;22.67;;;13.73;;
66478;SDS011;53294;47.912;13.526;2023-01-29T16:44:55;22.98;;;12.90;;
66478;SDS011;53294;47.912;13.526;2023-01-29T16:53:16;20.80;;;12.30;;
66478;SDS011;53294;47.912;13.526;2023-01-29T16:55:46;19.88;;;12.77;;
66478;SDS011;53294;47.912;13.526;2023-01-29T16:58:15;21.90;;;13.13;;
66478;SDS011;53294;47.912;13.526;2023-01-29T17:00:45;23.88;;;13.60;;
66478;SDS011;53294;47.912;13.526;2023-01-29T17:03:18;21.85;;;12.88;;
66478;SDS011;53294;47.912;13.526;2023-01-29T17:05:45;20.58;;;12.63;;
66478;SDS011;53294;47.912;13.526;2023-01-29T17:08:18;18.70;;;11.52;;
66478;SDS011;53294;47.912;13.526;2023-01-29T17:10:50;24.35;;;14.63;;
66478;SDS011;53294;47.912;13.526;2023-01-29T17:13:21;23.60;;;14.57;;
66478;SDS011;53294;47.912;13.526;2023-01-29T17:15:58;20.00;;;12.43;;
66478;SDS011;53294;47.912;13.526;2023-01-29T17:20:54;22.38;;;11.95;;
66478;SDS011;53294;47.912;13.526;2023-01-29T17:23:21;22.35;;;12.10;;
66478;SDS011;53294;47.912;13.526;2023-01-29T17:25:48;26.55;;;14.55;;
66478;SDS011;53294;47.912;13.526;2023-01-29T17:28:15;22.73;;;12.95;;
66478;SDS011;53294;47.912;13.526;2023-01-29T17:30:42;23.08;;;12.88;;
66478;SDS011;53294;47.912;13.526;2023-01-29T17:33:18;20.90;;;12.43;;
66478;SDS011;53294;47.912;13.526;2023-01-29T17:35:51;21.40;;;12.43;;
66478;SDS011;53294;47.912;13.526;2023-01-29T17:38:18;22.75;;;13.52;;